sensor_id;sensor_type;location;lat;lon;timestamp;temperature;humidity
63094;DHT22;49183;51.380;0.098;2022-07-17T00:02:31;15.10;70.00
63094;DHT22;49183;51.380;0.098;2022-07-17T00:05:32;15.10;70.40
63094;DHT22;49183;51.380;0.098;2022-07-17T00:08:33;15.00;70.60
63094;DHT22;49183;51.380;0.098;2022-07-17T00:11:34;14.90;70.60
63094;DHT22;49183;51.380;0.098;2022-07-17T00:14:35;14.90;70.60
63094;DHT22;49183;51.380;0.098;2022-07-17T00:17:37;14.90;70.70
63094;DHT22;49183;51.380;0.098;2022-07-17T00:20:38;14.90;70.80
63094;DHT22;49183;51.380;0.098;2022-07-17T00:23:39;14.90;71.10
63094;DHT22;49183;51.380;0.098;2022-07-17T00:26:40;14.80;71.40
63094;DHT22;49183;51.380;0.098;2022-07-17T00:29:41;14.80;71.60
63094;DHT22;49183;51.380;0.098;2022-07-17T00:32:42;14.80;72.10
63094;DHT22;49183;51.380;0.098;2022-07-17T00:35:44;14.70;72.30
63094;DHT22;49183;51.380;0.098;2022-07-17T00:38:45;14.60;72.40
63094;DHT22;49183;51.380;0.098;2022-07-17T00:41:46;14.50;72.60
63094;DHT22;49183;51.380;0.098;2022-07-17T00:44:47;14.50;73.10
63094;DHT22;49183;51.380;0.098;2022-07-17T00:50:54;14.40;73.60
63094;DHT22;49183;51.380;0.098;2022-07-17T00:53:50;14.40;73.50
63094;DHT22;49183;51.380;0.098;2022-07-17T00:56:56;14.40;73.50
63094;DHT22;49183;51.380;0.098;2022-07-17T00:59:59;14.50;73.40
63094;DHT22;49183;51.380;0.098;2022-07-17T01:03:04;14.60;73.30
63094;DHT22;49183;51.380;0.098;2022-07-17T01:06:05;14.70;73.20
63094;DHT22;49183;51.380;0.098;2022-07-17T01:09:10;14.70;73.30
63094;DHT22;49183;51.380;0.098;2022-07-17T01:12:11;14.80;73.40
63094;DHT22;49183;51.380;0.098;2022-07-17T01:15:13;14.90;73.40
63094;DHT22;49183;51.380;0.098;2022-07-17T01:18:14;15.00;73.50
63094;DHT22;49183;51.380;0.098;2022-07-17T01:21:16;15.10;73.60
63094;DHT22;49183;51.380;0.098;2022-07-17T01:24:17;15.00;73.80
63094;DHT22;49183;51.380;0.098;2022-07-17T01:27:18;15.10;73.90
63094;DHT22;49183;51.380;0.098;2022-07-17T01:30:19;15.10;74.10
63094;DHT22;49183;51.380;0.098;2022-07-17T01:33:20;15.00;74.30
63094;DHT22;49183;51.380;0.098;2022-07-17T01:36:24;15.10;74.50
63094;DHT22;49183;51.380;0.098;2022-07-17T01:39:26;15.10;74.60
63094;DHT22;49183;51.380;0.098;2022-07-17T01:42:49;15.20;74.40
63094;DHT22;49183;51.380;0.098;2022-07-17T01:45:50;15.20;74.40
63094;DHT22;49183;51.380;0.098;2022-07-17T01:48:51;15.30;74.30
63094;DHT22;49183;51.380;0.098;2022-07-17T01:51:52;15.30;74.20
63094;DHT22;49183;51.380;0.098;2022-07-17T01:54:54;15.30;74.20
63094;DHT22;49183;51.380;0.098;2022-07-17T01:57:55;15.30;74.30
63094;DHT22;49183;51.380;0.098;2022-07-17T02:00:56;15.30;74.50
63094;DHT22;49183;51.380;0.098;2022-07-17T02:03:57;15.30;74.70
63094;DHT22;49183;51.380;0.098;2022-07-17T02:06:58;15.30;74.80
63094;DHT22;49183;51.380;0.098;2022-07-17T02:09:59;15.30;74.90
63094;DHT22;49183;51.380;0.098;2022-07-17T02:13:00;15.30;74.90
63094;DHT22;49183;51.380;0.098;2022-07-17T02:16:01;15.30;75.00
63094;DHT22;49183;51.380;0.098;2022-07-17T02:19:02;15.40;75.00
63094;DHT22;49183;51.380;0.098;2022-07-17T02:22:03;15.40;75.10
63094;DHT22;49183;51.380;0.098;2022-07-17T02:24:57;15.40;75.30
63094;DHT22;49183;51.380;0.098;2022-07-17T02:27:58;15.30;75.60
63094;DHT22;49183;51.380;0.098;2022-07-17T02:30:59;15.30;75.90
63094;DHT22;49183;51.380;0.098;2022-07-17T02:34:00;15.20;76.10
63094;DHT22;49183;51.380;0.098;2022-07-17T02:37:01;15.20;76.20
63094;DHT22;49183;51.380;0.098;2022-07-17T02:40:03;15.20;76.30
63094;DHT22;49183;51.380;0.098;2022-07-17T02:43:04;15.20;76.40
63094;DHT22;49183;51.380;0.098;2022-07-17T02:46:05;15.20;76.50
63094;DHT22;49183;51.380;0.098;2022-07-17T02:49:07;15.10;76.50
63094;DHT22;49183;51.380;0.098;2022-07-17T02:52:08;15.00;76.60
63094;DHT22;49183;51.380;0.098;2022-07-17T02:55:10;14.90;76.70
63094;DHT22;49183;51.380;0.098;2022-07-17T02:58:11;14.90;77.10
63094;DHT22;49183;51.380;0.098;2022-07-17T03:01:12;14.80;77.30
63094;DHT22;49183;51.380;0.098;2022-07-17T03:04:06;14.80;77.50
63094;DHT22;49183;51.380;0.098;2022-07-17T03:07:07;14.80;77.70
63094;DHT22;49183;51.380;0.098;2022-07-17T03:10:08;14.80;77.90
63094;DHT22;49183;51.380;0.098;2022-07-17T03:13:09;14.80;77.90
63094;DHT22;49183;51.380;0.098;2022-07-17T03:16:10;14.80;77.90
63094;DHT22;49183;51.380;0.098;2022-07-17T03:19:11;14.80;78.00
63094;DHT22;49183;51.380;0.098;2022-07-17T03:22:13;14.80;78.20
63094;DHT22;49183;51.380;0.098;2022-07-17T03:25:14;14.80;78.30
63094;DHT22;49183;51.380;0.098;2022-07-17T03:28:15;14.80;78.30
63094;DHT22;49183;51.380;0.098;2022-07-17T03:31:16;14.80;78.30
63094;DHT22;49183;51.380;0.098;2022-07-17T03:34:18;14.80;78.30
63094;DHT22;49183;51.380;0.098;2022-07-17T03:37:20;14.80;78.30
63094;DHT22;49183;51.380;0.098;2022-07-17T03:40:21;14.80;78.30
63094;DHT22;49183;51.380;0.098;2022-07-17T03:43:22;14.80;78.20
63094;DHT22;49183;51.380;0.098;2022-07-17T03:46:23;14.80;78.10
63094;DHT22;49183;51.380;0.098;2022-07-17T03:49:24;14.80;78.00
63094;DHT22;49183;51.380;0.098;2022-07-17T03:52:25;14.80;77.90
63094;DHT22;49183;51.380;0.098;2022-07-17T03:55:26;14.80;78.00
63094;DHT22;49183;51.380;0.098;2022-07-17T03:58:27;14.70;78.30
63094;DHT22;49183;51.380;0.098;2022-07-17T04:01:28;14.60;78.60
63094;DHT22;49183;51.380;0.098;2022-07-17T04:04:29;14.60;78.70
63094;DHT22;49183;51.380;0.098;2022-07-17T04:07:30;14.60;78.60
63094;DHT22;49183;51.380;0.098;2022-07-17T04:10:31;14.70;78.30
63094;DHT22;49183;51.380;0.098;2022-07-17T04:13:32;14.60;78.20
63094;DHT22;49183;51.380;0.098;2022-07-17T04:16:33;14.60;78.20
63094;DHT22;49183;51.380;0.098;2022-07-17T04:19:34;14.70;78.10
63094;DHT22;49183;51.380;0.098;2022-07-17T04:22:35;14.80;77.80
63094;DHT22;49183;51.380;0.098;2022-07-17T04:25:36;14.90;77.50
63094;DHT22;49183;51.380;0.098;2022-07-17T04:28:38;15.00;77.30
63094;DHT22;49183;51.380;0.098;2022-07-17T04:31:40;15.10;76.90
63094;DHT22;49183;51.380;0.098;2022-07-17T04:34:51;15.30;76.50
63094;DHT22;49183;51.380;0.098;2022-07-17T04:37:52;15.40;76.00
63094;DHT22;49183;51.380;0.098;2022-07-17T04:40:53;15.50;75.60
63094;DHT22;49183;51.380;0.098;2022-07-17T04:43:54;15.60;75.30
63094;DHT22;49183;51.380;0.098;2022-07-17T04:46:55;15.60;75.10
63094;DHT22;49183;51.380;0.098;2022-07-17T04:49:56;15.70;75.00
63094;DHT22;49183;51.380;0.098;2022-07-17T04:52:58;15.70;74.90
63094;DHT22;49183;51.380;0.098;2022-07-17T04:55:59;15.70;74.90
63094;DHT22;49183;51.380;0.098;2022-07-17T04:59:00;15.70;75.00
63094;DHT22;49183;51.380;0.098;2022-07-17T05:02:01;15.70;75.10
63094;DHT22;49183;51.380;0.098;2022-07-17T05:05:02;15.70;75.10
63094;DHT22;49183;51.380;0.098;2022-07-17T05:08:04;15.70;75.10
63094;DHT22;49183;51.380;0.098;2022-07-17T05:11:05;15.70;75.00
63094;DHT22;49183;51.380;0.098;2022-07-17T05:14:06;15.70;74.90
63094;DHT22;49183;51.380;0.098;2022-07-17T05:17:07;15.80;74.70
63094;DHT22;49183;51.380;0.098;2022-07-17T05:20:08;15.90;74.50
63094;DHT22;49183;51.380;0.098;2022-07-17T05:23:09;16.00;74.30
63094;DHT22;49183;51.380;0.098;2022-07-17T05:26:10;16.10;74.20
63094;DHT22;49183;51.380;0.098;2022-07-17T05:29:11;16.10;74.00
63094;DHT22;49183;51.380;0.098;2022-07-17T05:32:12;16.20;73.90
63094;DHT22;49183;51.380;0.098;2022-07-17T05:35:13;16.30;73.80
63094;DHT22;49183;51.380;0.098;2022-07-17T05:38:14;16.40;73.60
63094;DHT22;49183;51.380;0.098;2022-07-17T05:41:15;16.60;73.50
63094;DHT22;49183;51.380;0.098;2022-07-17T05:44:16;16.80;73.60
63094;DHT22;49183;51.380;0.098;2022-07-17T05:47:17;16.90;73.50
63094;DHT22;49183;51.380;0.098;2022-07-17T05:50:18;17.10;73.30
63094;DHT22;49183;51.380;0.098;2022-07-17T05:53:19;17.20;73.20
63094;DHT22;49183;51.380;0.098;2022-07-17T05:56:20;17.30;73.30
63094;DHT22;49183;51.380;0.098;2022-07-17T05:59:21;17.60;73.60
63094;DHT22;49183;51.380;0.098;2022-07-17T06:02:22;17.90;73.60
63094;DHT22;49183;51.380;0.098;2022-07-17T06:05:23;18.30;73.20
63094;DHT22;49183;51.380;0.098;2022-07-17T06:08:24;18.50;72.60
63094;DHT22;49183;51.380;0.098;2022-07-17T06:11:25;18.80;72.00
63094;DHT22;49183;51.380;0.098;2022-07-17T06:14:26;19.00;71.40
63094;DHT22;49183;51.380;0.098;2022-07-17T06:17:27;19.10;70.60
63094;DHT22;49183;51.380;0.098;2022-07-17T06:20:30;19.30;70.00
63094;DHT22;49183;51.380;0.098;2022-07-17T06:23:31;19.40;69.30
63094;DHT22;49183;51.380;0.098;2022-07-17T06:26:32;19.50;68.40
63094;DHT22;49183;51.380;0.098;2022-07-17T06:29:33;19.70;67.50
63094;DHT22;49183;51.380;0.098;2022-07-17T06:32:42;19.80;66.80
63094;DHT22;49183;51.380;0.098;2022-07-17T06:35:43;19.80;66.20
63094;DHT22;49183;51.380;0.098;2022-07-17T06:38:44;19.70;65.90
63094;DHT22;49183;51.380;0.098;2022-07-17T06:41:45;19.70;65.80
63094;DHT22;49183;51.380;0.098;2022-07-17T06:44:46;19.70;65.70
63094;DHT22;49183;51.380;0.098;2022-07-17T06:47:47;19.80;65.30
63094;DHT22;49183;51.380;0.098;2022-07-17T06:50:48;19.90;65.00
63094;DHT22;49183;51.380;0.098;2022-07-17T06:53:42;20.20;64.00
63094;DHT22;49183;51.380;0.098;2022-07-17T06:56:36;20.40;63.00
63094;DHT22;49183;51.380;0.098;2022-07-17T06:59:37;20.60;62.00
63094;DHT22;49183;51.380;0.098;2022-07-17T07:02:38;20.90;61.40
63094;DHT22;49183;51.380;0.098;2022-07-17T07:05:39;21.30;60.50
63094;DHT22;49183;51.380;0.098;2022-07-17T07:08:40;21.80;59.60
63094;DHT22;49183;51.380;0.098;2022-07-17T07:11:41;22.10;58.90
63094;DHT22;49183;51.380;0.098;2022-07-17T07:14:42;22.40;57.80
63094;DHT22;49183;51.380;0.098;2022-07-17T07:17:43;22.60;57.00
63094;DHT22;49183;51.380;0.098;2022-07-17T07:20:44;22.90;56.40
63094;DHT22;49183;51.380;0.098;2022-07-17T07:23:45;23.20;55.50
63094;DHT22;49183;51.380;0.098;2022-07-17T07:26:46;23.40;54.90
63094;DHT22;49183;51.380;0.098;2022-07-17T07:29:47;23.70;54.00
63094;DHT22;49183;51.380;0.098;2022-07-17T07:32:48;23.90;53.30
63094;DHT22;49183;51.380;0.098;2022-07-17T07:35:49;24.10;52.80
63094;DHT22;49183;51.380;0.098;2022-07-17T07:38:50;24.20;52.00
63094;DHT22;49183;51.380;0.098;2022-07-17T07:41:51;24.40;51.90
63094;DHT22;49183;51.380;0.098;2022-07-17T07:44:45;24.80;51.40
63094;DHT22;49183;51.380;0.098;2022-07-17T07:47:48;25.00;51.00
63094;DHT22;49183;51.380;0.098;2022-07-17T07:50:49;25.20;50.40
63094;DHT22;49183;51.380;0.098;2022-07-17T07:53:50;25.40;49.80
63094;DHT22;49183;51.380;0.098;2022-07-17T07:56:51;25.70;49.00
63094;DHT22;49183;51.380;0.098;2022-07-17T07:59:52;25.90;48.50
63094;DHT22;49183;51.380;0.098;2022-07-17T08:02:54;26.10;47.80
63094;DHT22;49183;51.380;0.098;2022-07-17T08:05:48;26.20;47.30
63094;DHT22;49183;51.380;0.098;2022-07-17T08:08:49;26.10;47.60
63094;DHT22;49183;51.380;0.098;2022-07-17T08:11:50;26.30;47.60
63094;DHT22;49183;51.380;0.098;2022-07-17T08:15:12;26.30;47.40
63094;DHT22;49183;51.380;0.098;2022-07-17T08:18:16;26.40;47.50
63094;DHT22;49183;51.380;0.098;2022-07-17T08:21:17;26.70;47.30
63094;DHT22;49183;51.380;0.098;2022-07-17T08:24:18;26.80;47.00
63094;DHT22;49183;51.380;0.098;2022-07-17T08:27:19;26.90;46.90
63094;DHT22;49183;51.380;0.098;2022-07-17T08:30:20;26.90;46.60
63094;DHT22;49183;51.380;0.098;2022-07-17T08:33:21;26.80;46.50
63094;DHT22;49183;51.380;0.098;2022-07-17T08:36:22;26.70;46.40
63094;DHT22;49183;51.380;0.098;2022-07-17T08:39:23;26.60;46.80
63094;DHT22;49183;51.380;0.098;2022-07-17T08:42:24;26.50;46.70
63094;DHT22;49183;51.380;0.098;2022-07-17T08:45:26;26.40;46.60
63094;DHT22;49183;51.380;0.098;2022-07-17T08:48:33;26.30;46.20
63094;DHT22;49183;51.380;0.098;2022-07-17T08:51:36;26.30;46.30
63094;DHT22;49183;51.380;0.098;2022-07-17T08:54:37;26.30;46.20
63094;DHT22;49183;51.380;0.098;2022-07-17T08:57:40;26.40;46.20
63094;DHT22;49183;51.380;0.098;2022-07-17T09:00:41;26.60;45.70
63094;DHT22;49183;51.380;0.098;2022-07-17T09:03:54;26.70;45.20
63094;DHT22;49183;51.380;0.098;2022-07-17T09:07:01;26.90;45.30
63094;DHT22;49183;51.380;0.098;2022-07-17T09:09:56;27.20;44.70
63094;DHT22;49183;51.380;0.098;2022-07-17T09:12:50;27.50;44.20
63094;DHT22;49183;51.380;0.098;2022-07-17T09:15:53;27.70;43.80
63094;DHT22;49183;51.380;0.098;2022-07-17T09:18:54;27.80;43.50
63094;DHT22;49183;51.380;0.098;2022-07-17T09:22:09;27.90;42.80
63094;DHT22;49183;51.380;0.098;2022-07-17T09:25:10;28.00;42.00
63094;DHT22;49183;51.380;0.098;2022-07-17T09:28:13;28.10;41.40
63094;DHT22;49183;51.380;0.098;2022-07-17T09:31:27;28.40;40.20
63094;DHT22;49183;51.380;0.098;2022-07-17T09:34:30;28.80;39.40
63094;DHT22;49183;51.380;0.098;2022-07-17T09:37:33;29.20;38.20
63094;DHT22;49183;51.380;0.098;2022-07-17T09:40:38;29.30;37.30
63094;DHT22;49183;51.380;0.098;2022-07-17T09:44:01;29.30;37.10
63094;DHT22;49183;51.380;0.098;2022-07-17T09:47:02;29.00;36.40
63094;DHT22;49183;51.380;0.098;2022-07-17T09:50:07;28.80;36.50
63094;DHT22;49183;51.380;0.098;2022-07-17T09:53:09;28.50;36.70
63094;DHT22;49183;51.380;0.098;2022-07-17T09:56:04;28.30;37.00
63094;DHT22;49183;51.380;0.098;2022-07-17T09:59:08;28.20;37.20
63094;DHT22;49183;51.380;0.098;2022-07-17T10:02:03;28.10;37.50
63094;DHT22;49183;51.380;0.098;2022-07-17T10:05:05;28.00;37.90
63094;DHT22;49183;51.380;0.098;2022-07-17T10:08:06;28.00;38.00
63094;DHT22;49183;51.380;0.098;2022-07-17T10:11:08;28.00;37.80
63094;DHT22;49183;51.380;0.098;2022-07-17T10:14:12;27.90;37.40
63094;DHT22;49183;51.380;0.098;2022-07-17T10:17:14;27.80;37.70
63094;DHT22;49183;51.380;0.098;2022-07-17T10:20:25;27.90;38.10
63094;DHT22;49183;51.380;0.098;2022-07-17T10:23:26;28.00;38.50
63094;DHT22;49183;51.380;0.098;2022-07-17T10:26:40;28.10;38.30
63094;DHT22;49183;51.380;0.098;2022-07-17T10:29:45;28.20;38.00
63094;DHT22;49183;51.380;0.098;2022-07-17T10:33:01;28.20;38.00
63094;DHT22;49183;51.380;0.098;2022-07-17T10:36:05;28.30;38.10
63094;DHT22;49183;51.380;0.098;2022-07-17T10:39:24;28.20;37.70
63094;DHT22;49183;51.380;0.098;2022-07-17T10:42:46;28.30;37.60
63094;DHT22;49183;51.380;0.098;2022-07-17T10:45:47;28.20;36.80
63094;DHT22;49183;51.380;0.098;2022-07-17T10:48:48;28.20;36.90
63094;DHT22;49183;51.380;0.098;2022-07-17T10:51:50;28.20;36.80
63094;DHT22;49183;51.380;0.098;2022-07-17T10:54:50;28.30;36.50
63094;DHT22;49183;51.380;0.098;2022-07-17T10:57:45;28.30;36.00
63094;DHT22;49183;51.380;0.098;2022-07-17T11:01:06;28.30;36.00
63094;DHT22;49183;51.380;0.098;2022-07-17T11:04:07;28.30;35.90
63094;DHT22;49183;51.380;0.098;2022-07-17T11:07:08;28.30;35.50
63094;DHT22;49183;51.380;0.098;2022-07-17T11:10:13;28.30;35.40
63094;DHT22;49183;51.380;0.098;2022-07-17T11:13:15;28.40;35.20
63094;DHT22;49183;51.380;0.098;2022-07-17T11:16:29;28.80;34.90
63094;DHT22;49183;51.380;0.098;2022-07-17T11:19:38;28.80;34.00
63094;DHT22;49183;51.380;0.098;2022-07-17T11:22:41;28.80;33.90
63094;DHT22;49183;51.380;0.098;2022-07-17T11:26:06;29.00;33.60
63094;DHT22;49183;51.380;0.098;2022-07-17T11:29:07;29.30;32.90
63094;DHT22;49183;51.380;0.098;2022-07-17T11:32:08;29.40;32.80
63094;DHT22;49183;51.380;0.098;2022-07-17T11:38:29;29.50;32.20
63094;DHT22;49183;51.380;0.098;2022-07-17T11:41:41;29.50;31.80
63094;DHT22;49183;51.380;0.098;2022-07-17T11:44:49;29.70;31.50
63094;DHT22;49183;51.380;0.098;2022-07-17T11:47:50;29.70;31.00
63094;DHT22;49183;51.380;0.098;2022-07-17T11:50:55;29.80;30.90
63094;DHT22;49183;51.380;0.098;2022-07-17T11:54:03;29.90;31.00
63094;DHT22;49183;51.380;0.098;2022-07-17T11:57:05;30.10;30.70
63094;DHT22;49183;51.380;0.098;2022-07-17T12:00:08;30.20;30.70
63094;DHT22;49183;51.380;0.098;2022-07-17T12:03:09;30.30;30.30
63094;DHT22;49183;51.380;0.098;2022-07-17T12:06:10;30.30;30.30
63094;DHT22;49183;51.380;0.098;2022-07-17T12:09:12;30.40;30.20
63094;DHT22;49183;51.380;0.098;2022-07-17T12:12:21;30.40;30.10
63094;DHT22;49183;51.380;0.098;2022-07-17T12:18:37;30.20;30.40
63094;DHT22;49183;51.380;0.098;2022-07-17T12:22:04;30.20;31.10
63094;DHT22;49183;51.380;0.098;2022-07-17T12:25:05;30.30;31.20
63094;DHT22;49183;51.380;0.098;2022-07-17T12:28:06;30.50;31.00
63094;DHT22;49183;51.380;0.098;2022-07-17T12:31:08;30.80;30.60
63094;DHT22;49183;51.380;0.098;2022-07-17T12:34:09;30.80;30.00
63094;DHT22;49183;51.380;0.098;2022-07-17T12:37:18;30.90;29.90
63094;DHT22;49183;51.380;0.098;2022-07-17T12:40:19;30.90;30.30
63094;DHT22;49183;51.380;0.098;2022-07-17T12:43:20;31.00;30.70
63094;DHT22;49183;51.380;0.098;2022-07-17T12:46:21;31.20;30.50
63094;DHT22;49183;51.380;0.098;2022-07-17T12:49:22;31.20;30.30
63094;DHT22;49183;51.380;0.098;2022-07-17T12:52:23;31.20;30.20
63094;DHT22;49183;51.380;0.098;2022-07-17T12:55:24;31.30;30.40
63094;DHT22;49183;51.380;0.098;2022-07-17T12:58:25;31.60;30.00
63094;DHT22;49183;51.380;0.098;2022-07-17T13:01:26;31.90;29.80
63094;DHT22;49183;51.380;0.098;2022-07-17T13:04:27;32.10;29.20
63094;DHT22;49183;51.380;0.098;2022-07-17T13:07:28;32.20;28.60
63094;DHT22;49183;51.380;0.098;2022-07-17T13:10:29;32.20;28.70
63094;DHT22;49183;51.380;0.098;2022-07-17T13:13:31;32.50;28.70
63094;DHT22;49183;51.380;0.098;2022-07-17T13:16:31;32.50;28.40
63094;DHT22;49183;51.380;0.098;2022-07-17T13:19:32;32.40;28.10
63094;DHT22;49183;51.380;0.098;2022-07-17T13:22:33;32.30;28.40
63094;DHT22;49183;51.380;0.098;2022-07-17T13:25:34;32.30;28.30
63094;DHT22;49183;51.380;0.098;2022-07-17T13:28:36;32.20;28.50
63094;DHT22;49183;51.380;0.098;2022-07-17T13:31:38;32.30;28.30
63094;DHT22;49183;51.380;0.098;2022-07-17T13:34:42;32.50;28.30
63094;DHT22;49183;51.380;0.098;2022-07-17T13:37:44;32.60;28.20
63094;DHT22;49183;51.380;0.098;2022-07-17T13:40:45;32.60;28.40
63094;DHT22;49183;51.380;0.098;2022-07-17T13:43:46;32.60;28.60
63094;DHT22;49183;51.380;0.098;2022-07-17T13:46:54;32.50;28.90
63094;DHT22;49183;51.380;0.098;2022-07-17T13:49:55;32.20;28.90
63094;DHT22;49183;51.380;0.098;2022-07-17T13:53:01;32.20;28.90
63094;DHT22;49183;51.380;0.098;2022-07-17T13:56:01;32.20;29.00
63094;DHT22;49183;51.380;0.098;2022-07-17T13:59:02;32.30;29.10
63094;DHT22;49183;51.380;0.098;2022-07-17T14:02:03;32.50;28.90
63094;DHT22;49183;51.380;0.098;2022-07-17T14:05:07;32.40;28.90
63094;DHT22;49183;51.380;0.098;2022-07-17T14:08:08;32.30;28.50
63094;DHT22;49183;51.380;0.098;2022-07-17T14:11:10;32.30;28.50
63094;DHT22;49183;51.380;0.098;2022-07-17T14:14:12;32.30;28.50
63094;DHT22;49183;51.380;0.098;2022-07-17T14:17:14;32.40;28.50
63094;DHT22;49183;51.380;0.098;2022-07-17T14:20:14;32.40;28.40
63094;DHT22;49183;51.380;0.098;2022-07-17T14:23:15;32.50;28.10
63094;DHT22;49183;51.380;0.098;2022-07-17T14:26:16;32.50;28.10
63094;DHT22;49183;51.380;0.098;2022-07-17T14:29:17;32.60;28.10
63094;DHT22;49183;51.380;0.098;2022-07-17T14:32:18;32.70;28.20
63094;DHT22;49183;51.380;0.098;2022-07-17T14:35:20;32.70;28.10
63094;DHT22;49183;51.380;0.098;2022-07-17T14:38:21;32.70;28.10
63094;DHT22;49183;51.380;0.098;2022-07-17T14:41:22;32.80;28.30
63094;DHT22;49183;51.380;0.098;2022-07-17T14:44:23;32.90;28.40
63094;DHT22;49183;51.380;0.098;2022-07-17T14:47:27;32.90;28.20
63094;DHT22;49183;51.380;0.098;2022-07-17T14:50:28;32.80;28.30
63094;DHT22;49183;51.380;0.098;2022-07-17T14:53:29;32.90;28.30
63094;DHT22;49183;51.380;0.098;2022-07-17T14:56:31;32.80;28.10
63094;DHT22;49183;51.380;0.098;2022-07-17T14:59:32;32.60;28.30
63094;DHT22;49183;51.380;0.098;2022-07-17T15:02:33;32.50;28.10
63094;DHT22;49183;51.380;0.098;2022-07-17T15:05:34;32.50;27.80
63094;DHT22;49183;51.380;0.098;2022-07-17T15:08:35;32.50;28.10
63094;DHT22;49183;51.380;0.098;2022-07-17T15:11:37;32.50;28.10
63094;DHT22;49183;51.380;0.098;2022-07-17T15:14:39;32.50;28.00
63094;DHT22;49183;51.380;0.098;2022-07-17T15:17:41;32.50;28.20
63094;DHT22;49183;51.380;0.098;2022-07-17T15:20:41;32.60;28.50
63094;DHT22;49183;51.380;0.098;2022-07-17T15:23:42;32.80;28.30
63094;DHT22;49183;51.380;0.098;2022-07-17T15:26:43;33.00;28.20
63094;DHT22;49183;51.380;0.098;2022-07-17T15:29:44;33.30;27.70
63094;DHT22;49183;51.380;0.098;2022-07-17T15:32:46;33.70;27.70
63094;DHT22;49183;51.380;0.098;2022-07-17T15:35:46;33.90;27.20
63094;DHT22;49183;51.380;0.098;2022-07-17T15:38:53;33.90;27.20
63094;DHT22;49183;51.380;0.098;2022-07-17T15:41:54;33.70;27.30
63094;DHT22;49183;51.380;0.098;2022-07-17T15:44:56;33.40;27.40
63094;DHT22;49183;51.380;0.098;2022-07-17T15:47:56;33.30;27.80
63094;DHT22;49183;51.380;0.098;2022-07-17T15:50:57;33.30;28.00
63094;DHT22;49183;51.380;0.098;2022-07-17T15:53:58;33.20;27.90
63094;DHT22;49183;51.380;0.098;2022-07-17T15:57:03;33.00;27.80
63094;DHT22;49183;51.380;0.098;2022-07-17T16:00:05;32.90;27.80
63094;DHT22;49183;51.380;0.098;2022-07-17T16:03:06;32.80;28.20
63094;DHT22;49183;51.380;0.098;2022-07-17T16:06:08;32.70;28.30
63094;DHT22;49183;51.380;0.098;2022-07-17T16:09:12;32.70;28.50
63094;DHT22;49183;51.380;0.098;2022-07-17T16:12:12;32.60;28.70
63094;DHT22;49183;51.380;0.098;2022-07-17T16:15:13;32.60;29.00
63094;DHT22;49183;51.380;0.098;2022-07-17T16:18:14;32.60;29.00
63094;DHT22;49183;51.380;0.098;2022-07-17T16:21:15;32.50;29.10
63094;DHT22;49183;51.380;0.098;2022-07-17T16:24:16;32.60;28.40
63094;DHT22;49183;51.380;0.098;2022-07-17T16:27:17;32.50;27.80
63094;DHT22;49183;51.380;0.098;2022-07-17T16:30:25;32.40;27.80
63094;DHT22;49183;51.380;0.098;2022-07-17T16:33:26;32.60;27.90
63094;DHT22;49183;51.380;0.098;2022-07-17T16:36:27;32.70;28.10
63094;DHT22;49183;51.380;0.098;2022-07-17T16:39:28;32.60;28.40
63094;DHT22;49183;51.380;0.098;2022-07-17T16:42:29;32.50;28.60
63094;DHT22;49183;51.380;0.098;2022-07-17T16:45:30;32.40;28.70
63094;DHT22;49183;51.380;0.098;2022-07-17T16:48:31;32.20;29.10
63094;DHT22;49183;51.380;0.098;2022-07-17T16:51:32;32.00;29.50
63094;DHT22;49183;51.380;0.098;2022-07-17T16:54:26;31.80;30.00
63094;DHT22;49183;51.380;0.098;2022-07-17T16:57:28;31.60;30.20
63094;DHT22;49183;51.380;0.098;2022-07-17T17:00:29;31.40;30.80
63094;DHT22;49183;51.380;0.098;2022-07-17T17:03:29;31.20;31.00
63094;DHT22;49183;51.380;0.098;2022-07-17T17:06:32;31.10;31.20
63094;DHT22;49183;51.380;0.098;2022-07-17T17:09:33;30.90;31.40
63094;DHT22;49183;51.380;0.098;2022-07-17T17:12:34;31.00;31.50
63094;DHT22;49183;51.380;0.098;2022-07-17T17:15:36;30.90;31.80
63094;DHT22;49183;51.380;0.098;2022-07-17T17:18:37;30.90;32.10
63094;DHT22;49183;51.380;0.098;2022-07-17T17:21:37;30.80;32.40
63094;DHT22;49183;51.380;0.098;2022-07-17T17:24:39;30.70;32.60
63094;DHT22;49183;51.380;0.098;2022-07-17T17:27:40;30.60;33.00
63094;DHT22;49183;51.380;0.098;2022-07-17T17:30:41;30.40;33.20
63094;DHT22;49183;51.380;0.098;2022-07-17T17:33:47;30.20;33.50
63094;DHT22;49183;51.380;0.098;2022-07-17T17:36:48;30.10;33.70
63094;DHT22;49183;51.380;0.098;2022-07-17T17:39:49;30.00;34.00
63094;DHT22;49183;51.380;0.098;2022-07-17T17:42:51;29.90;34.20
63094;DHT22;49183;51.380;0.098;2022-07-17T17:45:52;29.90;34.50
63094;DHT22;49183;51.380;0.098;2022-07-17T17:48:53;29.90;34.50
63094;DHT22;49183;51.380;0.098;2022-07-17T17:51:54;29.80;34.60
63094;DHT22;49183;51.380;0.098;2022-07-17T17:54:56;29.60;34.70
63094;DHT22;49183;51.380;0.098;2022-07-17T17:57:57;29.50;35.00
63094;DHT22;49183;51.380;0.098;2022-07-17T18:00:58;29.50;35.20
63094;DHT22;49183;51.380;0.098;2022-07-17T18:03:59;29.40;35.20
63094;DHT22;49183;51.380;0.098;2022-07-17T18:07:00;29.40;35.30
63094;DHT22;49183;51.380;0.098;2022-07-17T18:10:01;29.40;35.40
63094;DHT22;49183;51.380;0.098;2022-07-17T18:13:03;29.40;35.70
63094;DHT22;49183;51.380;0.098;2022-07-17T18:16:04;29.40;35.70
63094;DHT22;49183;51.380;0.098;2022-07-17T18:19:06;29.50;35.70
63094;DHT22;49183;51.380;0.098;2022-07-17T18:22:07;29.50;35.80
63094;DHT22;49183;51.380;0.098;2022-07-17T18:25:08;29.30;35.90
63094;DHT22;49183;51.380;0.098;2022-07-17T18:28:09;29.30;36.10
63094;DHT22;49183;51.380;0.098;2022-07-17T18:35:14;29.00;36.50
63094;DHT22;49183;51.380;0.098;2022-07-17T18:48:02;28.50;37.50
63094;DHT22;49183;51.380;0.098;2022-07-17T18:51:03;28.40;37.70
63094;DHT22;49183;51.380;0.098;2022-07-17T18:54:08;28.40;37.70
63094;DHT22;49183;51.380;0.098;2022-07-17T18:57:24;28.30;37.80
63094;DHT22;49183;51.380;0.098;2022-07-17T19:19:15;27.30;39.70
63094;DHT22;49183;51.380;0.098;2022-07-17T19:22:27;27.10;40.20
63094;DHT22;49183;51.380;0.098;2022-07-17T19:25:28;27.00;40.40
63094;DHT22;49183;51.380;0.098;2022-07-17T19:28:29;26.80;40.80
63094;DHT22;49183;51.380;0.098;2022-07-17T19:31:30;26.70;41.00
63094;DHT22;49183;51.380;0.098;2022-07-17T19:34:31;26.70;41.30
63094;DHT22;49183;51.380;0.098;2022-07-17T19:37:32;26.60;41.50
63094;DHT22;49183;51.380;0.098;2022-07-17T19:40:33;26.60;41.50
63094;DHT22;49183;51.380;0.098;2022-07-17T19:43:34;26.50;41.50
63094;DHT22;49183;51.380;0.098;2022-07-17T19:46:35;26.50;41.80
63094;DHT22;49183;51.380;0.098;2022-07-17T19:49:36;26.50;41.80
63094;DHT22;49183;51.380;0.098;2022-07-17T19:52:30;26.70;41.70